Little River, Alabama
Current Conditions -  °F | °C
As of 9:53 AM on Monday 24 Nov 2014 (Local Time) from KGZH Reporting Station
Clear Clear  
Wind Chill: 73°   Ceiling: Unl
Heat Index: 73°   Visibility: 10mi
Dew Point: 63°   Wind: 9mph
Humidity: 71%   Direction: 250°WSW
Pressure: 29.86"   Gusts: 17mph
Location:  31.26°N, 87.72°W
Report Text: KGZH 241553Z AUTO 25008G15KT 10SM CLR 23/17 A2986 RMK AO2 SLP107 T02280172
Loading
Personal Weather Stations






























Interactive Weather Map New forecast layout! Learn more

10-Day Weather Forecast

Advertisements
Track Severe Weather on mobile